createdAt,value
2017-10-27T00:00:28.029Z,69.10
2017-10-27T00:02:55.495Z,69.10
2017-10-27T00:05:22.955Z,69.40
2017-10-27T00:07:50.437Z,68.80
2017-10-27T00:10:17.893Z,69.30
2017-10-27T00:12:45.366Z,69.30
2017-10-27T00:15:12.832Z,69.30
2017-10-27T00:17:40.345Z,69.30
2017-10-27T00:20:08.554Z,69.30
2017-10-27T00:22:36.023Z,69.90
2017-10-27T00:25:03.533Z,69.80
2017-10-27T00:27:31.800Z,69.30
2017-10-27T00:29:59.250Z,69.30
2017-10-27T00:32:26.743Z,69.30
2017-10-27T00:34:54.994Z,70.20
2017-10-27T00:37:22.558Z,70.20
2017-10-27T00:39:50.060Z,69.60
2017-10-27T00:42:18.281Z,69.90
2017-10-27T00:44:45.779Z,69.90
2017-10-27T00:47:13.250Z,69.30
2017-10-27T00:49:41.526Z,70.10
2017-10-27T00:52:08.978Z,69.40
2017-10-27T00:54:36.436Z,69.10
2017-10-27T00:57:03.895Z,69.20
2017-10-27T00:59:31.381Z,69.10
2017-10-27T01:01:59.627Z,69.20
2017-10-27T01:04:27.076Z,69.10
2017-10-27T01:06:54.751Z,69.60
2017-10-27T01:09:22.180Z,70.30
2017-10-27T01:11:50.412Z,69.70
2017-10-27T01:14:17.916Z,69.70
2017-10-27T01:16:45.373Z,69.70
2017-10-27T01:19:12.837Z,70.00
2017-10-27T01:21:41.077Z,69.00
2017-10-27T01:24:08.528Z,69.00
2017-10-27T01:26:36.016Z,69.00
2017-10-27T01:29:04.243Z,69.00
2017-10-27T01:31:31.741Z,68.90
2017-10-27T01:33:59.250Z,68.90
2017-10-27T01:36:26.697Z,67.90
2017-10-27T01:38:54.953Z,68.90
2017-10-27T01:41:22.405Z,69.50
2017-10-27T01:43:49.875Z,66.20
2017-10-27T01:46:17.365Z,66.50
2017-10-27T01:48:45.580Z,66.40
2017-10-27T01:51:13.062Z,66.40
2017-10-27T01:53:40.707Z,66.40
2017-10-27T01:56:08.241Z,67.10
2017-10-27T01:58:36.435Z,67.40
2017-10-27T02:01:03.904Z,67.30
2017-10-27T02:03:31.398Z,68.30
2017-10-27T02:05:58.914Z,68.20
2017-10-27T02:08:26.404Z,68.40
2017-10-27T02:10:53.890Z,68.50
2017-10-27T02:13:21.391Z,68.50
2017-10-27T02:15:48.840Z,68.50
2017-10-27T02:18:16.306Z,68.40
2017-10-27T02:20:43.803Z,69.70
2017-10-27T02:23:11.258Z,70.20
2017-10-27T02:25:38.707Z,70.30
2017-10-27T02:28:06.944Z,69.30
2017-10-27T02:30:34.429Z,69.30
2017-10-27T02:33:01.919Z,70.20
2017-10-27T02:35:30.136Z,71.20
2017-10-27T02:37:57.589Z,71.10
2017-10-27T02:40:25.813Z,71.60
2017-10-27T02:42:54.056Z,70.90
2017-10-27T02:45:21.523Z,71.20
2017-10-27T02:47:48.992Z,71.50
2017-10-27T02:50:16.490Z,70.80
2017-10-27T02:52:43.945Z,72.10
2017-10-27T02:55:12.175Z,72.20
2017-10-27T02:57:39.909Z,72.20
2017-10-27T03:00:08.164Z,71.40
2017-10-27T03:02:35.628Z,71.40
2017-10-27T03:05:03.712Z,71.30
2017-10-27T03:07:31.191Z,71.70
2017-10-27T03:09:59.431Z,71.70
2017-10-27T03:12:26.913Z,71.70
2017-10-27T03:14:54.356Z,72.00
2017-10-27T03:17:21.813Z,72.00
2017-10-27T03:19:49.299Z,71.70
2017-10-27T03:22:16.782Z,72.00
2017-10-27T03:24:45.002Z,72.90
2017-10-27T03:27:12.573Z,72.70
2017-10-27T03:29:40.027Z,72.80
2017-10-27T03:32:07.533Z,72.90
2017-10-27T03:34:35.013Z,72.90
2017-10-27T03:37:03.223Z,73.30
2017-10-27T03:39:30.723Z,73.30
2017-10-27T03:41:58.165Z,72.90
2017-10-27T03:44:25.753Z,72.90
2017-10-27T03:46:53.910Z,72.90
2017-10-27T03:49:21.426Z,72.90
2017-10-27T03:51:49.699Z,72.90
2017-10-27T03:54:17.989Z,73.00
2017-10-27T03:56:45.376Z,72.90
2017-10-27T03:59:12.871Z,72.80
2017-10-27T04:01:40.341Z,72.60
2017-10-27T04:04:07.820Z,72.90
2017-10-27T04:06:35.298Z,72.80
2017-10-27T04:09:02.732Z,72.50
2017-10-27T04:11:30.229Z,72.70
2017-10-27T04:13:58.437Z,73.00
2017-10-27T04:16:25.936Z,72.90
2017-10-27T04:18:53.418Z,73.20
2017-10-27T04:21:20.914Z,72.90
2017-10-27T04:23:48.386Z,73.10
2017-10-27T04:26:15.854Z,72.70
2017-10-27T04:28:43.327Z,72.70
2017-10-27T04:31:10.816Z,72.80
2017-10-27T04:33:38.326Z,72.70
2017-10-27T04:36:05.780Z,72.80
2017-10-27T04:38:33.285Z,72.30
2017-10-27T04:41:00.756Z,72.70
2017-10-27T04:43:28.227Z,72.70
2017-10-27T04:45:55.698Z,71.90
2017-10-27T04:48:23.143Z,72.20
2017-10-27T04:50:50.641Z,72.10
2017-10-27T04:53:18.876Z,72.70
2017-10-27T04:55:46.395Z,72.60
2017-10-27T04:58:14.612Z,72.00
2017-10-27T05:00:42.142Z,72.10
2017-10-27T05:03:10.363Z,71.70
2017-10-27T05:05:37.826Z,71.60
2017-10-27T05:08:05.276Z,71.50
2017-10-27T05:10:33.515Z,71.40
2017-10-27T05:13:01.765Z,71.30
2017-10-27T05:15:29.189Z,71.30
2017-10-27T05:17:56.687Z,71.30
2017-10-27T05:20:24.158Z,71.20
2017-10-27T05:22:51.636Z,71.10
2017-10-27T05:25:19.944Z,70.40
2017-10-27T05:27:47.440Z,70.30
2017-10-27T05:30:14.881Z,70.00
2017-10-27T05:32:42.357Z,70.00
2017-10-27T05:35:09.831Z,70.20
2017-10-27T05:37:37.265Z,70.80
2017-10-27T05:40:04.708Z,70.20
2017-10-27T05:42:32.195Z,70.30
2017-10-27T05:45:00.154Z,71.10
2017-10-27T05:47:27.653Z,70.20
2017-10-27T05:49:55.116Z,69.90
2017-10-27T05:52:22.598Z,70.40
2017-10-27T05:54:50.197Z,70.40
2017-10-27T05:57:17.647Z,69.80
2017-10-27T05:59:45.863Z,70.10
2017-10-27T06:02:13.321Z,70.10
2017-10-27T06:04:40.824Z,69.50
2017-10-27T06:07:08.275Z,70.00
2017-10-27T06:09:35.742Z,69.50
2017-10-27T06:12:03.227Z,69.50
2017-10-27T06:14:30.689Z,70.10
2017-10-27T06:16:58.290Z,69.10
2017-10-27T06:19:25.743Z,70.20
2017-10-27T06:21:53.251Z,69.60
2017-10-27T06:24:20.702Z,69.60
2017-10-27T06:26:48.163Z,69.70
2017-10-27T06:29:15.688Z,70.30
2017-10-27T06:31:43.900Z,69.70
2017-10-27T06:34:11.374Z,69.70
2017-10-27T06:36:38.857Z,69.60
2017-10-27T06:39:06.354Z,70.00
2017-10-27T06:41:33.772Z,70.10
2017-10-27T06:44:01.261Z,70.60
2017-10-27T06:46:29.472Z,69.60
2017-10-27T06:48:56.958Z,69.50
2017-10-27T06:51:24.447Z,69.70
2017-10-27T06:53:51.890Z,70.40
2017-10-27T06:56:19.386Z,70.40
2017-10-27T06:58:46.984Z,68.70
2017-10-27T07:01:14.461Z,68.00
2017-10-27T07:03:41.975Z,68.70
2017-10-27T07:06:09.416Z,68.40
2017-10-27T07:08:36.903Z,69.00
2017-10-27T07:11:04.356Z,68.00
2017-10-27T07:13:31.797Z,68.00
2017-10-27T07:15:59.287Z,67.60
2017-10-27T07:18:26.736Z,67.50
2017-10-27T07:20:54.233Z,67.90
2017-10-27T07:23:22.445Z,67.50
2017-10-27T07:25:49.937Z,67.50
2017-10-27T07:28:17.443Z,67.50
2017-10-27T07:30:44.891Z,67.00
2017-10-27T07:33:12.353Z,66.80
2017-10-27T07:35:40.589Z,67.50
2017-10-27T07:38:08.049Z,67.30
2017-10-27T07:40:35.558Z,67.50
2017-10-27T07:43:03.006Z,67.50
2017-10-27T07:45:30.524Z,67.50
2017-10-27T07:47:57.955Z,67.00
2017-10-27T07:50:26.183Z,67.60
2017-10-27T07:52:53.872Z,67.50
2017-10-27T07:55:22.039Z,66.90
2017-10-27T07:57:49.528Z,66.90
2017-10-27T08:00:16.980Z,67.50
2017-10-27T08:02:45.253Z,67.40
2017-10-27T08:05:12.757Z,67.40
2017-10-27T08:07:40.969Z,67.10
2017-10-27T08:10:08.457Z,67.10
2017-10-27T08:12:35.938Z,67.50
2017-10-27T08:15:03.423Z,67.50
2017-10-27T08:17:30.900Z,67.60
2017-10-27T08:19:58.346Z,67.30
2017-10-27T08:22:26.007Z,66.40
2017-10-27T08:24:54.239Z,66.60
2017-10-27T08:27:21.749Z,66.60
2017-10-27T08:29:50.115Z,66.20
2017-10-27T08:32:17.493Z,66.10
2017-10-27T08:34:45.765Z,65.40
2017-10-27T08:37:13.984Z,64.70
2017-10-27T08:39:41.456Z,64.60
2017-10-27T08:42:08.921Z,64.40
2017-10-27T08:44:36.402Z,63.50
2017-10-27T08:47:03.867Z,62.90
2017-10-27T08:49:31.366Z,62.50
2017-10-27T08:51:59.635Z,62.50
2017-10-27T08:54:27.193Z,62.50
2017-10-27T08:56:54.607Z,62.30
2017-10-27T08:59:22.155Z,61.10
2017-10-27T09:01:49.561Z,61.70
2017-10-27T09:04:17.079Z,62.60
2017-10-27T09:06:44.648Z,61.70
2017-10-27T09:09:12.178Z,61.70
2017-10-27T09:11:39.625Z,61.20
2017-10-27T09:14:07.133Z,61.30
2017-10-27T09:16:34.642Z,61.10
2017-10-27T09:19:02.107Z,61.20
2017-10-27T09:21:29.581Z,60.10
2017-10-27T09:23:57.135Z,60.10
2017-10-27T09:26:24.604Z,59.90
2017-10-27T09:28:52.212Z,59.70
2017-10-27T09:31:20.472Z,58.70
2017-10-27T09:33:48.730Z,59.20
2017-10-27T09:36:16.191Z,59.10
2017-10-27T09:38:43.705Z,58.80
2017-10-27T09:41:11.903Z,59.00
2017-10-27T09:43:39.373Z,59.00
2017-10-27T09:46:06.864Z,59.00
2017-10-27T09:48:34.332Z,59.00
2017-10-27T09:51:02.566Z,59.10
2017-10-27T09:53:30.855Z,58.40
2017-10-27T09:55:59.099Z,58.40
2017-10-27T09:58:26.513Z,58.40
2017-10-27T10:00:54.088Z,58.60
2017-10-27T10:03:22.322Z,58.00
2017-10-27T10:05:49.779Z,57.50
2017-10-27T10:08:17.280Z,58.10
2017-10-27T10:10:44.790Z,58.40
2017-10-27T10:13:12.286Z,57.40
2017-10-27T10:15:39.801Z,57.10
2017-10-27T10:18:07.248Z,57.20
2017-10-27T10:20:34.821Z,57.30
2017-10-27T10:23:03.030Z,56.50
2017-10-27T10:25:30.557Z,56.50
2017-10-27T10:27:58.753Z,56.90
2017-10-27T10:30:27.008Z,56.60
2017-10-27T10:32:55.319Z,56.20
2017-10-27T10:35:22.707Z,56.20
2017-10-27T10:37:50.147Z,56.10
2017-10-27T10:40:18.453Z,56.30
2017-10-27T10:42:45.945Z,56.30
2017-10-27T10:45:13.373Z,55.60
2017-10-27T10:47:40.972Z,54.90
2017-10-27T10:50:08.437Z,54.50
2017-10-27T10:52:35.996Z,54.50
2017-10-27T10:55:03.526Z,54.40
2017-10-27T10:57:30.971Z,54.90
2017-10-27T10:59:58.757Z,55.00
2017-10-27T11:02:26.267Z,54.70
2017-10-27T11:04:53.729Z,54.30
2017-10-27T11:07:21.173Z,54.10
2017-10-27T11:09:48.659Z,54.30
2017-10-27T11:12:16.934Z,54.20
2017-10-27T11:14:44.327Z,54.20
2017-10-27T11:17:11.869Z,54.30
2017-10-27T11:19:39.321Z,54.10
2017-10-27T11:22:06.787Z,54.40
2017-10-27T11:24:34.257Z,53.70
2017-10-27T11:27:01.735Z,54.30
2017-10-27T11:29:29.983Z,52.90
2017-10-27T11:31:57.453Z,52.90
2017-10-27T11:34:24.934Z,53.20
2017-10-27T11:36:53.186Z,53.50
2017-10-27T11:39:20.797Z,53.60
2017-10-27T11:41:49.008Z,53.00
2017-10-27T11:44:16.514Z,52.90
2017-10-27T11:46:43.963Z,53.00
2017-10-27T11:49:11.429Z,53.10
2017-10-27T11:51:38.946Z,50.80
2017-10-27T11:54:06.398Z,51.90
2017-10-27T11:56:33.922Z,50.90
2017-10-27T11:59:01.341Z,50.50
2017-10-27T12:01:28.850Z,49.80
2017-10-27T12:03:56.754Z,49.60
2017-10-27T12:06:24.211Z,50.30
2017-10-27T12:08:52.466Z,49.80
2017-10-27T12:11:19.951Z,49.80
2017-10-27T12:13:48.207Z,49.70
2017-10-27T12:16:15.677Z,49.70
2017-10-27T12:18:43.138Z,49.80
2017-10-27T12:21:11.392Z,48.60
2017-10-27T12:23:38.843Z,48.50
2017-10-27T12:26:06.350Z,48.70
2017-10-27T12:28:34.582Z,47.80
2017-10-27T12:31:02.078Z,47.80
2017-10-27T12:33:29.560Z,47.60
2017-10-27T12:35:57.819Z,47.80
2017-10-27T12:38:25.329Z,47.80
2017-10-27T12:40:52.783Z,48.40
2017-10-27T12:43:20.282Z,47.90
2017-10-27T12:45:47.733Z,46.70
2017-10-27T12:48:15.192Z,47.30
2017-10-27T12:50:42.711Z,47.00
2017-10-27T12:53:10.146Z,47.10
2017-10-27T12:55:37.724Z,47.20
2017-10-27T12:58:05.168Z,47.30
2017-10-27T13:00:32.674Z,47.20
2017-10-27T13:03:00.123Z,46.60
2017-10-27T13:05:28.379Z,46.50
2017-10-27T13:07:55.822Z,45.80
2017-10-27T13:10:23.297Z,46.10
2017-10-27T13:12:50.813Z,46.80
2017-10-27T13:15:19.080Z,47.60
2017-10-27T13:17:46.480Z,46.90
2017-10-27T13:20:14.000Z,47.30
2017-10-27T13:22:42.316Z,47.50
2017-10-27T13:25:09.891Z,47.40
2017-10-27T13:27:38.460Z,47.70
2017-10-27T13:30:05.858Z,47.70
2017-10-27T13:32:33.317Z,47.90
2017-10-27T13:35:00.814Z,48.10
2017-10-27T13:37:28.683Z,48.50
2017-10-27T13:39:56.135Z,48.90
2017-10-27T13:42:24.373Z,51.10
2017-10-27T13:44:51.869Z,51.10
2017-10-27T13:47:19.509Z,53.30
2017-10-27T13:49:46.837Z,54.30
2017-10-27T13:52:15.046Z,52.50
2017-10-27T13:54:42.556Z,52.50
2017-10-27T13:57:10.047Z,51.40
2017-10-27T13:59:38.295Z,51.80
2017-10-27T14:02:05.790Z,51.80
2017-10-27T14:04:34.041Z,51.50
2017-10-27T14:07:01.472Z,51.50
2017-10-27T14:09:28.974Z,51.60
2017-10-27T14:11:57.192Z,52.00
2017-10-27T14:14:24.698Z,51.90
2017-10-27T14:16:52.233Z,52.10
2017-10-27T14:19:20.465Z,52.30
2017-10-27T14:21:48.768Z,51.60
2017-10-27T14:24:16.984Z,51.90
2017-10-27T14:26:45.212Z,51.80
2017-10-27T14:29:12.685Z,51.80
2017-10-27T14:31:40.904Z,51.70
2017-10-27T14:34:08.425Z,51.60
2017-10-27T14:36:36.656Z,51.70
2017-10-27T14:39:04.221Z,51.70
2017-10-27T14:41:31.673Z,52.10
2017-10-27T14:43:59.164Z,52.50
2017-10-27T14:46:26.675Z,52.50
2017-10-27T14:48:54.155Z,53.00
2017-10-27T14:51:21.600Z,53.40
2017-10-27T14:53:49.106Z,53.40
2017-10-27T14:56:16.601Z,53.50
2017-10-27T14:58:44.819Z,53.90
2017-10-27T15:01:12.566Z,53.90
2017-10-27T15:03:40.033Z,53.90
2017-10-27T15:06:07.542Z,53.20
2017-10-27T15:08:34.988Z,53.40
2017-10-27T15:11:02.443Z,54.20
2017-10-27T15:13:29.918Z,54.60
2017-10-27T15:15:58.165Z,56.10
2017-10-27T15:18:25.670Z,56.10
2017-10-27T15:20:53.110Z,56.70
2017-10-27T15:23:20.628Z,57.50
2017-10-27T15:25:48.106Z,58.00
2017-10-27T15:28:16.353Z,58.00
2017-10-27T15:30:43.850Z,57.90
2017-10-27T15:33:11.365Z,57.80
2017-10-27T15:35:40.422Z,58.70
2017-10-27T15:38:07.862Z,58.60
2017-10-27T15:40:35.379Z,57.80
2017-10-27T15:43:02.886Z,57.30
2017-10-27T15:45:31.107Z,57.90
2017-10-27T15:47:58.615Z,57.90
2017-10-27T15:50:26.074Z,58.20
2017-10-27T15:52:53.578Z,58.10
2017-10-27T15:55:21.052Z,58.00
2017-10-27T15:57:48.548Z,57.70
2017-10-27T16:00:16.042Z,57.20
2017-10-27T16:02:45.041Z,57.20
2017-10-27T16:05:12.492Z,57.30
2017-10-27T16:07:40.748Z,57.40
2017-10-27T16:10:08.318Z,57.40
2017-10-27T16:12:35.835Z,58.80
2017-10-27T16:15:03.385Z,58.90
2017-10-27T16:17:30.865Z,59.10
2017-10-27T16:19:58.410Z,59.00
2017-10-27T16:22:25.996Z,58.70
2017-10-27T16:24:54.201Z,58.90
2017-10-27T16:27:21.746Z,59.00
2017-10-27T16:29:49.968Z,58.40
2017-10-27T16:32:18.200Z,59.10
2017-10-27T16:34:46.545Z,59.00
2017-10-27T16:37:14.813Z,58.40
2017-10-27T16:39:42.309Z,58.40
2017-10-27T16:42:09.819Z,58.80
2017-10-27T16:44:37.240Z,58.90
2017-10-27T16:47:04.725Z,55.90
2017-10-27T16:49:32.192Z,56.30
2017-10-27T16:51:59.707Z,55.60
2017-10-27T16:54:27.966Z,55.70
2017-10-27T16:56:55.378Z,55.70
2017-10-27T16:59:22.892Z,56.10
2017-10-27T17:01:50.306Z,56.00
2017-10-27T17:04:17.781Z,56.00
2017-10-27T17:06:45.257Z,57.90
2017-10-27T17:09:12.745Z,55.90
2017-10-27T17:11:40.234Z,56.40
2017-10-27T17:14:07.784Z,55.20
2017-10-27T17:16:35.222Z,56.10
2017-10-27T17:19:02.721Z,57.30
2017-10-27T17:21:30.192Z,56.60
2017-10-27T17:23:58.444Z,57.10
2017-10-27T17:26:26.639Z,56.20
2017-10-27T17:28:54.143Z,56.20
2017-10-27T17:31:21.943Z,55.60
2017-10-27T17:33:49.384Z,56.50
2017-10-27T17:36:16.843Z,56.70
2017-10-27T17:38:44.393Z,56.20
2017-10-27T17:41:11.876Z,56.50
2017-10-27T17:43:39.361Z,57.70
2017-10-27T17:46:06.836Z,56.50
2017-10-27T17:48:35.107Z,56.70
2017-10-27T17:51:02.614Z,56.60
2017-10-27T17:53:30.100Z,56.90
2017-10-27T17:55:57.584Z,57.70
2017-10-27T17:58:25.182Z,58.00
2017-10-27T18:00:52.681Z,58.00
2017-10-27T18:03:20.883Z,58.00
2017-10-27T18:05:48.391Z,58.00
2017-10-27T18:08:15.850Z,58.00
2017-10-27T18:10:43.340Z,58.00
2017-10-27T18:13:10.859Z,58.00
2017-10-27T18:15:39.121Z,58.20
2017-10-27T18:18:07.400Z,58.30
2017-10-27T18:20:36.408Z,58.30
2017-10-27T18:23:03.866Z,58.20
2017-10-27T18:25:31.328Z,58.10
2017-10-27T18:27:59.663Z,58.00
2017-10-27T18:30:27.171Z,58.10
2017-10-27T18:32:55.380Z,59.30
2017-10-27T18:35:23.607Z,59.50
2017-10-27T18:37:51.106Z,59.50
2017-10-27T18:40:18.571Z,60.10
2017-10-27T18:42:46.010Z,59.40
2017-10-27T18:45:13.495Z,59.60
2017-10-27T18:47:40.983Z,60.00
2017-10-27T18:50:08.439Z,59.80
2017-10-27T18:52:35.980Z,59.90
2017-10-27T18:55:03.446Z,59.90
2017-10-27T18:57:30.904Z,60.40
2017-10-27T18:59:58.392Z,61.20
2017-10-27T19:02:26.066Z,60.20
2017-10-27T19:04:54.299Z,60.60
2017-10-27T19:07:21.809Z,60.50
2017-10-27T19:09:50.074Z,61.20
2017-10-27T19:12:18.354Z,61.10
2017-10-27T19:14:46.588Z,61.20
2017-10-27T19:17:14.082Z,61.20
2017-10-27T19:19:41.555Z,61.60
2017-10-27T19:22:09.010Z,61.90
2017-10-27T19:24:36.495Z,61.40
2017-10-27T19:27:04.803Z,61.10
2017-10-27T19:29:32.297Z,61.10
2017-10-27T19:31:59.879Z,61.40
2017-10-27T19:34:27.264Z,61.70
2017-10-27T19:36:55.499Z,62.00
2017-10-27T19:39:23.008Z,61.90
2017-10-27T19:41:51.229Z,62.40
2017-10-27T19:44:18.692Z,62.30
2017-10-27T19:46:46.248Z,61.80
2017-10-27T19:49:14.443Z,62.50
2017-10-27T19:51:41.900Z,62.30
2017-10-27T19:54:09.396Z,62.20
2017-10-27T19:56:36.932Z,62.30
2017-10-27T19:59:04.570Z,62.10
2017-10-27T20:01:31.965Z,62.50
2017-10-27T20:03:59.474Z,62.30
2017-10-27T20:06:26.951Z,62.70
2017-10-27T20:08:54.399Z,62.50
2017-10-27T20:11:22.621Z,62.50
2017-10-27T20:13:50.139Z,62.50
2017-10-27T20:16:17.576Z,62.30
2017-10-27T20:18:45.080Z,62.50
2017-10-27T20:21:13.337Z,62.00
2017-10-27T20:23:41.595Z,62.30
2017-10-27T20:26:10.581Z,62.20
2017-10-27T20:28:38.114Z,62.90
2017-10-27T20:31:06.419Z,62.30
2017-10-27T20:33:33.867Z,62.30
2017-10-27T20:36:01.333Z,62.50
2017-10-27T20:38:28.921Z,62.80
2017-10-27T20:40:57.142Z,62.60
2017-10-27T20:43:25.389Z,62.60
2017-10-27T20:45:52.829Z,62.60
2017-10-27T20:48:20.466Z,62.50
2017-10-27T20:50:47.928Z,62.60
2017-10-27T20:53:15.502Z,61.80
2017-10-27T20:55:43.689Z,62.00
2017-10-27T20:58:11.168Z,62.00
2017-10-27T21:00:40.932Z,61.70
2017-10-27T21:03:09.531Z,62.00
2017-10-27T21:05:37.045Z,62.00
2017-10-27T21:08:04.535Z,61.80
2017-10-27T21:10:31.991Z,62.00
2017-10-27T21:13:00.260Z,63.30
2017-10-27T21:15:27.729Z,62.50
2017-10-27T21:17:55.229Z,62.80
2017-10-27T21:20:22.688Z,63.20
2017-10-27T21:22:50.172Z,63.40
2017-10-27T21:25:17.717Z,63.80
2017-10-27T21:27:45.207Z,64.00
2017-10-27T21:30:12.744Z,63.90
2017-10-27T21:32:40.284Z,63.40
2017-10-27T21:35:08.602Z,64.30
2017-10-27T21:37:36.122Z,64.30
2017-10-27T21:40:03.600Z,64.60
2017-10-27T21:42:31.152Z,64.40
2017-10-27T21:44:58.589Z,64.50
2017-10-27T21:47:26.116Z,64.70
2017-10-27T21:49:53.568Z,64.70
2017-10-27T21:52:21.097Z,64.40
2017-10-27T21:54:49.344Z,64.80
2017-10-27T21:57:16.774Z,64.60
2017-10-27T21:59:44.259Z,64.70
2017-10-27T22:02:11.709Z,64.10
2017-10-27T22:04:39.194Z,63.90
2017-10-27T22:07:06.679Z,63.90
2017-10-27T22:09:34.157Z,63.60
2017-10-27T22:12:02.428Z,63.60
2017-10-27T22:14:30.868Z,63.40
2017-10-27T22:16:58.311Z,63.40
2017-10-27T22:19:25.824Z,63.20
2017-10-27T22:21:54.042Z,63.10
2017-10-27T22:24:21.510Z,63.10
2017-10-27T22:26:49.008Z,62.70
2017-10-27T22:29:16.506Z,62.90
2017-10-27T22:31:44.736Z,62.30
2017-10-27T22:34:12.197Z,62.30
2017-10-27T22:36:39.698Z,62.70
2017-10-27T22:39:07.147Z,62.30
2017-10-27T22:41:34.629Z,62.50
2017-10-27T22:44:02.924Z,64.30
2017-10-27T22:46:30.361Z,64.30
2017-10-27T22:48:57.831Z,64.10
2017-10-27T22:51:25.307Z,64.20
2017-10-27T22:53:53.565Z,65.10
2017-10-27T22:56:21.025Z,65.00
2017-10-27T22:58:48.522Z,65.00
2017-10-27T23:01:16.760Z,64.30
2017-10-27T23:03:44.383Z,64.30
2017-10-27T23:06:12.887Z,64.10
2017-10-27T23:08:40.333Z,64.70
2017-10-27T23:11:07.948Z,64.30
2017-10-27T23:13:36.134Z,64.20
2017-10-27T23:16:03.588Z,64.20
2017-10-27T23:18:31.111Z,65.10
2017-10-27T23:20:58.613Z,65.50
2017-10-27T23:23:26.066Z,65.60
2017-10-27T23:25:53.599Z,65.70
2017-10-27T23:28:21.785Z,66.10
2017-10-27T23:30:49.508Z,66.10
2017-10-27T23:33:16.949Z,66.00
2017-10-27T23:35:44.424Z,65.80
2017-10-27T23:38:11.915Z,65.60
2017-10-27T23:40:40.139Z,64.90
2017-10-27T23:43:07.609Z,64.90
2017-10-27T23:45:35.083Z,64.80
2017-10-27T23:48:02.534Z,64.90
2017-10-27T23:50:30.042Z,65.00
2017-10-27T23:52:58.358Z,64.50
2017-10-27T23:55:25.861Z,64.40
2017-10-27T23:57:53.374Z,64.20
